Time;durP1;ratioP1;P1;durP2;ratioP2;P2;SDS_P1;SDS_P2;PMS_P1;PMS_P2;Temp;Humidity;BMP_temperature;BMP_pressure;BME280_temperature;BME280_humidity;BME280_pressure;Samples;Min_cycle;Max_cycle;Signal;HPM_P1;HPM_P2
2022/03/13 00:00:34;;;;;;;;;;;21.90;29.40;;;;;;5074799;28;20300;-54
2022/03/13 00:03:03;;;;;;;;;;;21.80;29.50;;;;;;5067978;28;20043;-54
2022/03/13 00:05:29;;;;;;;;;;;21.80;29.50;;;;;;5073440;28;19989;-54
2022/03/13 00:07:56;;;;;;;;;;;21.70;29.50;;;;;;5074342;28;19920;-54
2022/03/13 00:10:25;;;;;;;;;;;21.70;29.50;;;;;;5073848;28;19920;-54
2022/03/13 00:12:50;;;;;;;;;;;21.70;29.50;;;;;;5073098;28;19920;-54
2022/03/13 00:15:16;;;;;;;;;;;21.70;29.60;;;;;;5073854;28;19912;-54
2022/03/13 00:17:42;;;;;;;;;;;21.60;29.60;;;;;;5073168;28;19920;-53
2022/03/13 00:20:08;;;;;;;;;;;21.60;29.60;;;;;;5050279;28;20394;-53
2022/03/13 00:22:34;;;;;;;;;;;21.50;29.50;;;;;;5064276;28;19919;-53
2022/03/13 00:24:59;;;;;;;;;;;21.50;29.50;;;;;;5074227;28;20451;-53
2022/03/13 00:27:25;;;;;;;;;;;21.50;29.60;;;;;;5068518;28;19995;-53
2022/03/13 00:29:51;;;;;;;;;;;21.50;29.70;;;;;;5071365;28;19991;-53
2022/03/13 00:32:17;;;;;;;;;;;21.50;29.90;;;;;;5068329;28;20360;-53
2022/03/13 00:34:42;;;;;;;;;;;21.50;29.60;;;;;;5070382;28;19912;-53
2022/03/13 00:37:08;;;;;;;;;;;21.50;29.80;;;;;;5068456;28;19977;-53
2022/03/13 00:39:34;;;;;;;;;;;21.40;29.50;;;;;;5069867;28;19913;-54
2022/03/13 00:41:59;;;;;;;;;;;21.40;29.60;;;;;;5070761;28;19955;-54
2022/03/13 00:44:25;;;;;;;;;;;21.30;29.60;;;;;;5069395;28;19990;-53
2022/03/13 00:46:51;;;;;;;;;;;21.30;29.70;;;;;;5066764;28;19952;-53
2022/03/13 00:49:16;;;;;;;;;;;21.40;29.40;;;;;;5068944;28;19923;-53
2022/03/13 00:51:42;;;;;;;;;;;21.30;29.40;;;;;;5067689;28;19978;-53
2022/03/13 00:54:07;;;;;;;;;;;21.30;29.60;;;;;;5068989;28;20391;-54
2022/03/13 00:56:32;;;;;;;;;;;21.20;29.50;;;;;;5068290;28;19913;-53
2022/03/13 00:58:58;;;;;;;;;;;21.20;29.50;;;;;;5070492;28;19912;-53
2022/03/13 01:01:24;;;;;;;;;;;21.20;29.60;;;;;;5069120;28;19917;-54
2022/03/13 01:03:50;;;;;;;;;;;21.20;29.70;;;;;;5070520;28;19920;-53
2022/03/13 01:06:16;;;;;;;;;;;21.20;29.70;;;;;;5068330;28;19947;-53
2022/03/13 01:08:43;;;;;;;;;;;21.10;29.60;;;;;;5068766;28;19962;-54
2022/03/13 01:11:08;;;;;;;;;;;21.10;29.60;;;;;;5068933;28;19967;-54
2022/03/13 01:13:35;;;;;;;;;;;21.10;29.70;;;;;;5068991;28;19946;-54
2022/03/13 01:16:10;;;;;;;;;;;21.20;29.70;;;;;;5070399;28;20003;-54
2022/03/13 01:18:37;;;;;;;;;;;21.30;29.60;;;;;;5069284;28;19913;-54
2022/03/13 01:21:03;;;;;;;;;;;21.30;29.80;;;;;;5066700;28;19979;-53
2022/03/13 01:23:28;;;;;;;;;;;21.30;29.60;;;;;;5070650;28;19951;-54
2022/03/13 01:26:10;;;;;;;;;;;21.30;29.50;;;;;;5068252;28;19917;-54
2022/03/13 01:28:36;;;;;;;;;;;21.30;29.70;;;;;;5066455;28;19920;-54
2022/03/13 01:31:01;;;;;;;;;;;21.30;29.50;;;;;;5069285;28;19965;-54
2022/03/13 01:33:27;;;;;;;;;;;21.30;29.50;;;;;;5068894;28;19912;-54
2022/03/13 01:35:52;;;;;;;;;;;21.30;29.70;;;;;;5067151;28;19956;-53
2022/03/13 01:38:18;;;;;;;;;;;21.20;29.50;;;;;;5069711;28;19920;-53
2022/03/13 01:40:44;;;;;;;;;;;21.20;29.50;;;;;;5066430;28;19990;-54
2022/03/13 01:43:09;;;;;;;;;;;21.20;29.60;;;;;;5069099;28;20106;-53
2022/03/13 01:45:35;;;;;;;;;;;21.20;29.50;;;;;;5067406;28;20011;-53
2022/03/13 01:48:00;;;;;;;;;;;21.20;29.40;;;;;;5066921;28;19955;-54
2022/03/13 01:50:26;;;;;;;;;;;21.20;29.50;;;;;;5068977;28;19912;-54
2022/03/13 01:52:52;;;;;;;;;;;21.10;29.40;;;;;;5068313;28;20287;-54
2022/03/13 01:55:18;;;;;;;;;;;21.10;29.50;;;;;;5069687;28;20007;-54
2022/03/13 01:57:45;;;;;;;;;;;21.10;29.50;;;;;;5067691;28;19923;-54
2022/03/13 02:00:11;;;;;;;;;;;21.00;29.50;;;;;;5068028;28;20376;-54
2022/03/13 02:02:37;;;;;;;;;;;21.00;29.60;;;;;;5068974;28;19913;-52
2022/03/13 02:05:03;;;;;;;;;;;21.00;29.60;;;;;;5066079;28;20318;-53
2022/03/13 02:07:28;;;;;;;;;;;20.90;29.50;;;;;;5069561;28;19912;-53
2022/03/13 02:09:54;;;;;;;;;;;20.90;29.60;;;;;;5066830;28;19912;-53
2022/03/13 02:12:20;;;;;;;;;;;20.90;29.80;;;;;;5065964;28;20361;-54
2022/03/13 02:14:46;;;;;;;;;;;20.80;29.40;;;;;;5068799;28;20311;-53
2022/03/13 02:17:12;;;;;;;;;;;20.80;29.40;;;;;;5067902;28;19916;-53
2022/03/13 02:19:37;;;;;;;;;;;20.80;29.50;;;;;;5065584;28;19912;-53
2022/03/13 02:22:03;;;;;;;;;;;21.00;29.40;;;;;;5059140;28;19913;-53
2022/03/13 02:24:28;;;;;;;;;;;21.10;29.30;;;;;;5067914;28;20271;-53
2022/03/13 02:27:03;;;;;;;;;;;21.30;29.20;;;;;;5066641;28;19912;-53
2022/03/13 02:29:29;;;;;;;;;;;21.40;29.20;;;;;;5065912;28;19916;-53
2022/03/13 02:31:55;;;;;;;;;;;21.60;29.00;;;;;;5068747;28;19916;-53
2022/03/13 02:34:20;;;;;;;;;;;21.80;29.00;;;;;;5066492;28;20391;-53
2022/03/13 02:36:49;;;;;;;;;;;22.00;28.70;;;;;;5067246;28;19974;-53
2022/03/13 02:39:14;;;;;;;;;;;22.20;28.60;;;;;;5067874;28;19913;-53
2022/03/13 02:41:40;;;;;;;;;;;22.30;28.50;;;;;;5066649;28;19908;-53
2022/03/13 02:44:06;;;;;;;;;;;22.30;28.40;;;;;;5068557;28;19970;-53
2022/03/13 02:46:50;;;;;;;;;;;22.40;28.40;;;;;;5065710;28;19920;-53
2022/03/13 02:49:17;;;;;;;;;;;22.40;28.30;;;;;;5068116;28;20019;-54
2022/03/13 02:51:43;;;;;;;;;;;22.30;28.30;;;;;;5065717;28;19920;-54
2022/03/13 02:54:09;;;;;;;;;;;22.40;28.40;;;;;;5067284;28;19934;-53
2022/03/13 02:56:34;;;;;;;;;;;22.30;28.30;;;;;;5068365;28;20368;-54
2022/03/13 02:59:00;;;;;;;;;;;22.30;28.20;;;;;;5071989;28;19914;-54
2022/03/13 03:01:25;;;;;;;;;;;22.30;28.20;;;;;;5071190;28;21582;-53
2022/03/13 03:04:01;;;;;;;;;;;22.30;28.00;;;;;;5072249;28;19928;-53
2022/03/13 03:06:29;;;;;;;;;;;22.30;28.00;;;;;;5071220;28;20368;-54
2022/03/13 03:08:55;;;;;;;;;;;22.20;27.90;;;;;;5071018;28;19913;-54
2022/03/13 03:11:21;;;;;;;;;;;22.20;27.80;;;;;;5072031;28;19920;-54
2022/03/13 03:13:46;;;;;;;;;;;22.20;27.90;;;;;;5070981;28;20285;-54
2022/03/13 03:16:12;;;;;;;;;;;22.10;27.90;;;;;;5070825;28;19924;-54
2022/03/13 03:18:37;;;;;;;;;;;22.20;28.00;;;;;;5072057;28;19916;-54
2022/03/13 03:21:03;;;;;;;;;;;22.10;28.00;;;;;;5070439;28;20388;-54
2022/03/13 03:23:28;;;;;;;;;;;22.00;28.10;;;;;;5072242;28;19935;-54
2022/03/13 03:25:54;;;;;;;;;;;21.90;28.30;;;;;;5070227;28;20011;-54
2022/03/13 03:28:19;;;;;;;;;;;21.80;28.40;;;;;;5070624;28;19912;-53
2022/03/13 03:30:44;;;;;;;;;;;21.70;28.40;;;;;;5071319;28;19917;-53
2022/03/13 03:33:10;;;;;;;;;;;21.70;28.50;;;;;;5070382;28;19978;-52
2022/03/13 03:35:35;;;;;;;;;;;21.60;28.50;;;;;;5071578;28;19913;-53
2022/03/13 03:38:01;;;;;;;;;;;21.60;28.50;;;;;;5069287;28;19923;-53
2022/03/13 03:40:27;;;;;;;;;;;21.50;28.60;;;;;;5070913;28;20008;-53
2022/03/13 03:42:56;;;;;;;;;;;21.50;28.60;;;;;;5069985;28;19970;-53
2022/03/13 03:45:21;;;;;;;;;;;21.40;28.70;;;;;;5069375;28;19959;-54
2022/03/13 03:47:47;;;;;;;;;;;21.30;28.80;;;;;;5071745;28;19916;-53
2022/03/13 03:50:12;;;;;;;;;;;21.20;28.90;;;;;;5070346;28;19927;-53
2022/03/13 03:52:38;;;;;;;;;;;21.20;28.90;;;;;;5070279;28;19916;-53
2022/03/13 03:55:03;;;;;;;;;;;21.20;28.80;;;;;;5069794;28;19921;-54
2022/03/13 03:57:29;;;;;;;;;;;21.20;28.80;;;;;;5070208;28;20010;-53
2022/03/13 03:59:54;;;;;;;;;;;21.30;28.80;;;;;;5069596;28;19913;-53
2022/03/13 04:02:20;;;;;;;;;;;21.30;28.60;;;;;;5070531;28;19913;-53
2022/03/13 04:04:46;;;;;;;;;;;21.40;28.60;;;;;;5069607;28;19912;-54
2022/03/13 04:07:11;;;;;;;;;;;21.50;28.70;;;;;;5069513;28;19916;-53
2022/03/13 04:09:37;;;;;;;;;;;21.50;28.50;;;;;;5070288;28;20379;-54
2022/03/13 04:12:07;;;;;;;;;;;21.50;28.50;;;;;;5070776;28;19951;-53
2022/03/13 04:14:34;;;;;;;;;;;21.50;28.40;;;;;;5070162;28;19920;-53
2022/03/13 04:16:59;;;;;;;;;;;21.50;28.40;;;;;;5071101;28;19913;-53
2022/03/13 04:19:26;;;;;;;;;;;21.50;28.40;;;;;;5066748;28;19927;-53
2022/03/13 04:21:51;;;;;;;;;;;21.50;28.40;;;;;;5069305;28;19913;-54
2022/03/13 04:24:17;;;;;;;;;;;21.60;28.30;;;;;;5069329;28;19917;-54
2022/03/13 04:26:42;;;;;;;;;;;21.60;28.50;;;;;;5068631;28;20280;-54
2022/03/13 04:29:09;;;;;;;;;;;21.60;28.10;;;;;;5071292;28;19913;-54
2022/03/13 04:31:36;;;;;;;;;;;21.70;28.40;;;;;;5070185;28;19924;-54
2022/03/13 04:34:02;;;;;;;;;;;21.70;28.20;;;;;;5069975;28;19912;-53
2022/03/13 04:36:29;;;;;;;;;;;21.70;28.00;;;;;;5070122;28;20388;-54
2022/03/13 04:38:54;;;;;;;;;;;21.80;28.00;;;;;;5068529;28;19994;-53
2022/03/13 04:41:20;;;;;;;;;;;21.80;27.90;;;;;;5070066;28;19954;-53
2022/03/13 04:43:45;;;;;;;;;;;21.80;27.90;;;;;;5069993;28;19920;-53
2022/03/13 04:46:11;;;;;;;;;;;21.80;27.90;;;;;;5069521;28;20035;-53
2022/03/13 04:48:37;;;;;;;;;;;21.80;27.90;;;;;;5070763;28;19916;-53
2022/03/13 04:51:02;;;;;;;;;;;21.70;27.90;;;;;;5069155;28;20291;-53
2022/03/13 04:53:28;;;;;;;;;;;21.70;27.90;;;;;;5067931;28;20292;-53
2022/03/13 04:55:53;;;;;;;;;;;21.60;28.00;;;;;;5068996;28;19920;-53
2022/03/13 04:58:19;;;;;;;;;;;21.50;28.00;;;;;;5070376;28;19912;-53
2022/03/13 05:00:47;;;;;;;;;;;21.50;28.20;;;;;;5069394;28;19947;-53
2022/03/13 05:03:12;;;;;;;;;;;21.40;28.20;;;;;;5069365;28;20043;-53
2022/03/13 05:05:39;;;;;;;;;;;21.40;28.40;;;;;;5069363;28;20003;-54
2022/03/13 05:08:05;;;;;;;;;;;21.30;28.40;;;;;;5068190;28;19916;-53
2022/03/13 05:10:35;;;;;;;;;;;21.30;28.40;;;;;;5070193;28;19923;-53
2022/03/13 05:13:01;;;;;;;;;;;21.30;28.40;;;;;;5070096;28;19913;-53
2022/03/13 05:15:26;;;;;;;;;;;21.30;28.50;;;;;;5067654;28;19916;-53
2022/03/13 05:17:52;;;;;;;;;;;21.20;28.40;;;;;;5069792;28;19917;-54
2022/03/13 05:20:18;;;;;;;;;;;21.20;28.40;;;;;;5068236;28;19931;-53
2022/03/13 05:22:43;;;;;;;;;;;21.20;28.50;;;;;;5069517;28;19913;-53
2022/03/13 05:25:09;;;;;;;;;;;21.10;28.50;;;;;;5069064;28;20265;-54
2022/03/13 05:27:34;;;;;;;;;;;21.10;28.60;;;;;;5067576;28;20277;-53
2022/03/13 05:29:59;;;;;;;;;;;21.10;28.70;;;;;;5069588;28;19912;-53
2022/03/13 05:32:25;;;;;;;;;;;21.10;28.60;;;;;;5067256;28;20075;-53
2022/03/13 05:34:52;;;;;;;;;;;21.10;28.50;;;;;;5069085;28;19924;-54
2022/03/13 05:37:17;;;;;;;;;;;21.10;28.50;;;;;;5066080;28;19916;-53
2022/03/13 05:39:42;;;;;;;;;;;21.20;28.50;;;;;;5067480;28;19917;-53
2022/03/13 05:42:09;;;;;;;;;;;21.30;28.40;;;;;;5068913;28;19999;-54
2022/03/13 05:44:36;;;;;;;;;;;21.30;28.40;;;;;;5064317;28;20361;-53
2022/03/13 05:47:02;;;;;;;;;;;21.40;28.30;;;;;;5069749;28;19924;-54
2022/03/13 05:49:28;;;;;;;;;;;21.40;28.30;;;;;;5068217;28;19916;-54
2022/03/13 05:51:54;;;;;;;;;;;21.50;28.20;;;;;;5068386;28;19969;-55
2022/03/13 05:54:20;;;;;;;;;;;21.50;28.00;;;;;;5067865;28;19913;-53
2022/03/13 05:56:46;;;;;;;;;;;21.50;28.00;;;;;;5067642;28;19913;-54
2022/03/13 05:59:11;;;;;;;;;;;21.50;28.00;;;;;;5070286;28;19916;-53
2022/03/13 06:01:38;;;;;;;;;;;21.60;27.90;;;;;;5068881;28;19916;-53
2022/03/13 06:04:03;;;;;;;;;;;21.60;27.90;;;;;;5067983;28;19916;-53
2022/03/13 06:06:32;;;;;;;;;;;21.60;27.90;;;;;;5066934;28;19921;-53
2022/03/13 06:08:57;;;;;;;;;;;21.60;27.90;;;;;;5067382;28;19958;-53
2022/03/13 06:11:23;;;;;;;;;;;21.50;27.70;;;;;;5069198;28;20364;-53
2022/03/13 06:13:48;;;;;;;;;;;21.60;27.80;;;;;;5067831;28;19917;-53
2022/03/13 06:16:14;;;;;;;;;;;21.60;27.80;;;;;;5067903;28;20010;-53
2022/03/13 06:18:40;;;;;;;;;;;21.60;27.80;;;;;;5068236;28;19920;-53
2022/03/13 06:21:06;;;;;;;;;;;21.60;27.80;;;;;;5067537;28;19919;-53
2022/03/13 06:23:32;;;;;;;;;;;21.50;27.70;;;;;;5064464;28;20292;-53
2022/03/13 06:26:00;;;;;;;;;;;21.50;27.80;;;;;;5065933;28;20459;-53
2022/03/13 06:28:26;;;;;;;;;;;21.50;27.80;;;;;;5068686;28;19917;-53
2022/03/13 06:30:51;;;;;;;;;;;21.50;27.80;;;;;;5067134;28;20429;-53
2022/03/13 06:33:17;;;;;;;;;;;21.50;27.80;;;;;;5067920;28;19922;-53
2022/03/13 06:35:42;;;;;;;;;;;21.50;27.80;;;;;;5066848;28;19921;-53
2022/03/13 06:38:08;;;;;;;;;;;21.40;27.70;;;;;;5066629;28;19916;-53
2022/03/13 06:40:34;;;;;;;;;;;21.40;27.70;;;;;;5067291;28;19912;-53
2022/03/13 06:43:00;;;;;;;;;;;21.30;27.90;;;;;;5067791;28;20292;-53
2022/03/13 06:45:26;;;;;;;;;;;21.30;27.90;;;;;;5067405;28;19917;-53
2022/03/13 06:47:52;;;;;;;;;;;21.20;27.90;;;;;;5068771;28;19916;-53
2022/03/13 06:50:18;;;;;;;;;;;21.20;28.10;;;;;;5066563;28;19920;-53
2022/03/13 06:52:47;;;;;;;;;;;21.10;28.10;;;;;;5067850;28;19943;-53
2022/03/13 06:55:13;;;;;;;;;;;21.00;28.10;;;;;;5067900;28;19969;-53
2022/03/13 06:57:41;;;;;;;;;;;21.00;28.10;;;;;;5067097;28;19916;-54
2022/03/13 07:00:07;;;;;;;;;;;21.00;28.10;;;;;;5065418;28;19916;-53
2022/03/13 07:02:33;;;;;;;;;;;21.00;28.10;;;;;;5066507;28;20340;-54
2022/03/13 07:04:58;;;;;;;;;;;21.00;28.20;;;;;;5068402;28;19913;-53
2022/03/13 07:07:23;;;;;;;;;;;21.00;28.20;;;;;;5066663;28;19942;-53
2022/03/13 07:09:49;;;;;;;;;;;21.00;28.30;;;;;;5066835;28;19954;-53
2022/03/13 07:12:16;;;;;;;;;;;21.00;28.30;;;;;;5066815;28;19921;-53
2022/03/13 07:14:44;;;;;;;;;;;21.10;28.10;;;;;;5067507;28;19916;-53
2022/03/13 07:17:09;;;;;;;;;;;21.10;28.00;;;;;;5068419;28;20260;-53
2022/03/13 07:19:35;;;;;;;;;;;21.10;27.90;;;;;;5067869;28;19936;-53
2022/03/13 07:22:00;;;;;;;;;;;21.10;27.90;;;;;;5066349;28;19913;-54
2022/03/13 07:24:25;;;;;;;;;;;21.10;27.90;;;;;;5068551;28;19916;-52
2022/03/13 07:26:51;;;;;;;;;;;21.10;28.10;;;;;;5066643;28;20082;-53
2022/03/13 07:29:17;;;;;;;;;;;21.10;28.00;;;;;;5068531;28;19917;-52
2022/03/13 07:31:42;;;;;;;;;;;21.20;28.10;;;;;;5067202;28;19921;-53
2022/03/13 07:34:07;;;;;;;;;;;21.20;28.00;;;;;;5067498;28;20340;-53
2022/03/13 07:36:34;;;;;;;;;;;21.20;28.00;;;;;;5067136;28;20390;-53
2022/03/13 07:39:00;;;;;;;;;;;21.20;28.00;;;;;;5066482;28;19962;-53
2022/03/13 07:41:26;;;;;;;;;;;21.20;27.70;;;;;;5065178;28;19912;-54
2022/03/13 07:43:51;;;;;;;;;;;21.20;28.20;;;;;;5069762;28;19956;-53
2022/03/13 07:46:17;;;;;;;;;;;21.20;27.80;;;;;;5071008;28;19917;-53
2022/03/13 07:48:44;;;;;;;;;;;21.20;27.80;;;;;;5071822;28;19956;-52
2022/03/13 07:51:11;;;;;;;;;;;21.20;27.70;;;;;;5070462;28;20360;-54
2022/03/13 07:53:36;;;;;;;;;;;21.10;27.60;;;;;;5071593;28;19919;-54
2022/03/13 07:56:02;;;;;;;;;;;21.20;27.60;;;;;;5070158;28;19912;-53
2022/03/13 07:58:28;;;;;;;;;;;21.10;27.80;;;;;;5070410;28;19912;-53
2022/03/13 08:00:53;;;;;;;;;;;21.10;27.80;;;;;;5069961;28;19924;-53
2022/03/13 08:03:24;;;;;;;;;;;21.10;27.70;;;;;;5070803;28;19908;-53
2022/03/13 08:05:53;;;;;;;;;;;21.10;27.60;;;;;;5067254;28;20436;-53
2022/03/13 08:08:18;;;;;;;;;;;21.10;27.60;;;;;;5067518;28;20310;-53
2022/03/13 08:10:44;;;;;;;;;;;21.10;27.70;;;;;;5069482;28;19974;-53
2022/03/13 08:13:09;;;;;;;;;;;21.10;27.60;;;;;;5071491;28;19912;-52
2022/03/13 08:15:34;;;;;;;;;;;21.10;27.60;;;;;;5069442;28;19919;-53
2022/03/13 08:18:00;;;;;;;;;;;21.10;27.60;;;;;;5072956;28;19916;-53
2022/03/13 08:20:26;;;;;;;;;;;21.00;27.60;;;;;;5070290;28;19913;-53
2022/03/13 08:22:51;;;;;;;;;;;21.00;27.60;;;;;;5073923;28;19916;-53
2022/03/13 08:25:19;;;;;;;;;;;21.00;27.60;;;;;;5066205;28;19939;-53
2022/03/13 08:27:45;;;;;;;;;;;21.00;27.70;;;;;;5062907;28;20347;-53
2022/03/13 08:30:11;;;;;;;;;;;21.00;28.30;;;;;;5073384;28;20011;-53
2022/03/13 08:32:38;;;;;;;;;;;21.00;27.70;;;;;;5074049;28;19916;-53
2022/03/13 08:35:03;;;;;;;;;;;21.00;27.80;;;;;;5069384;28;19917;-53
2022/03/13 08:37:29;;;;;;;;;;;21.00;27.90;;;;;;5074424;28;20050;-53
2022/03/13 08:39:54;;;;;;;;;;;21.00;27.90;;;;;;5072676;28;19909;-54
2022/03/13 08:42:20;;;;;;;;;;;21.00;27.80;;;;;;5073202;28;19916;-54
2022/03/13 08:44:45;;;;;;;;;;;20.90;27.70;;;;;;5073981;28;19908;-54
2022/03/13 08:47:11;;;;;;;;;;;20.90;27.80;;;;;;5074038;28;19951;-54
2022/03/13 08:49:36;;;;;;;;;;;20.90;27.80;;;;;;5073552;28;20444;-54
2022/03/13 08:52:02;;;;;;;;;;;20.90;27.90;;;;;;5073884;28;20425;-54
2022/03/13 08:54:27;;;;;;;;;;;20.90;27.80;;;;;;5055844;28;20654;-53
2022/03/13 08:56:52;;;;;;;;;;;20.90;27.70;;;;;;5058321;28;20382;-54
2022/03/13 08:59:21;;;;;;;;;;;20.90;27.70;;;;;;5071184;28;19908;-53
2022/03/13 09:01:47;;;;;;;;;;;21.00;28.00;;;;;;5053810;28;19962;-53
2022/03/13 09:04:13;;;;;;;;;;;21.00;27.90;;;;;;5064669;28;20384;-53
2022/03/13 09:06:39;;;;;;;;;;;20.90;27.70;;;;;;5068605;28;19923;-53
2022/03/13 09:09:12;;;;;;;;;;;20.90;27.80;;;;;;5069374;28;19913;-53
2022/03/13 09:11:37;;;;;;;;;;;20.90;27.80;;;;;;5067704;28;19931;-54
2022/03/13 09:14:03;;;;;;;;;;;20.90;27.60;;;;;;5070524;28;19917;-54
2022/03/13 09:16:32;;;;;;;;;;;20.90;27.70;;;;;;5066447;28;19924;-54
2022/03/13 09:18:58;;;;;;;;;;;20.90;27.70;;;;;;5068226;28;19917;-54
2022/03/13 09:21:23;;;;;;;;;;;20.90;27.70;;;;;;5069255;28;19916;-54
2022/03/13 09:23:49;;;;;;;;;;;20.90;27.50;;;;;;5069971;28;19912;-54
2022/03/13 09:26:14;;;;;;;;;;;20.90;27.40;;;;;;5068714;28;20058;-54
2022/03/13 09:28:40;;;;;;;;;;;20.90;27.40;;;;;;5069610;28;19957;-54
2022/03/13 09:31:06;;;;;;;;;;;21.00;27.40;;;;;;5068899;28;20434;-54
2022/03/13 09:33:31;;;;;;;;;;;21.00;27.40;;;;;;5066524;28;20011;-54
2022/03/13 09:35:57;;;;;;;;;;;21.00;27.40;;;;;;5068532;28;19999;-54
2022/03/13 09:38:22;;;;;;;;;;;21.00;27.40;;;;;;5069847;28;19923;-54
2022/03/13 09:40:48;;;;;;;;;;;21.00;27.40;;;;;;5069231;28;19924;-53
2022/03/13 09:43:13;;;;;;;;;;;21.00;27.40;;;;;;5068542;28;20561;-53
2022/03/13 09:45:39;;;;;;;;;;;21.00;27.50;;;;;;5069870;28;20253;-53
2022/03/13 09:48:06;;;;;;;;;;;21.00;27.40;;;;;;5068772;28;20552;-54
2022/03/13 09:50:32;;;;;;;;;;;20.90;27.50;;;;;;5069075;28;19973;-53
2022/03/13 09:52:57;;;;;;;;;;;20.90;27.50;;;;;;5067648;28;20310;-53
2022/03/13 09:55:23;;;;;;;;;;;20.90;27.50;;;;;;5068515;28;19916;-53
2022/03/13 09:57:48;;;;;;;;;;;21.00;27.60;;;;;;5051317;28;19934;-53
2022/03/13 10:00:16;;;;;;;;;;;20.90;27.70;;;;;;5066233;28;20338;-54
2022/03/13 10:02:42;;;;;;;;;;;20.90;27.50;;;;;;5067515;28;19927;-53
2022/03/13 10:05:08;;;;;;;;;;;20.90;27.50;;;;;;5065336;28;20011;-53
2022/03/13 10:07:49;;;;;;;;;;;21.00;27.50;;;;;;5066725;28;20475;-54
2022/03/13 10:10:15;;;;;;;;;;;21.00;27.50;;;;;;5065818;28;20411;-54
2022/03/13 10:12:40;;;;;;;;;;;21.00;27.50;;;;;;5067927;28;19928;-54
2022/03/13 10:15:06;;;;;;;;;;;21.00;27.50;;;;;;5067034;28;20330;-54
2022/03/13 10:17:33;;;;;;;;;;;21.00;27.50;;;;;;5069192;28;20007;-54
2022/03/13 10:20:30;;;;;;;;;;;21.10;27.40;;;;;;5068420;28;20641;-54
2022/03/13 10:22:59;;;;;;;;;;;21.10;27.40;;;;;;5032671;28;19917;-54
2022/03/13 10:25:28;;;;;;;;;;;21.10;27.30;;;;;;5061870;28;19912;-54
2022/03/13 10:27:53;;;;;;;;;;;21.10;27.30;;;;;;5068982;28;20435;-53
2022/03/13 10:30:19;;;;;;;;;;;21.10;27.30;;;;;;5065733;28;20051;-53
2022/03/13 10:32:45;;;;;;;;;;;21.10;27.30;;;;;;5064744;28;19955;-54
2022/03/13 10:35:11;;;;;;;;;;;21.10;27.40;;;;;;5065994;28;19995;-53
2022/03/13 10:37:38;;;;;;;;;;;21.10;27.30;;;;;;5067142;28;19916;-53
2022/03/13 10:40:18;;;;;;;;;;;21.10;27.40;;;;;;5062673;28;20813;-54
2022/03/13 10:42:44;;;;;;;;;;;21.10;27.70;;;;;;5067473;28;20035;-54
2022/03/13 10:45:10;;;;;;;;;;;21.10;27.80;;;;;;5072440;28;19955;-53
2022/03/13 10:47:36;;;;;;;;;;;21.10;27.60;;;;;;5071409;28;19913;-54
2022/03/13 10:50:02;;;;;;;;;;;21.30;27.70;;;;;;5071082;28;20003;-54
2022/03/13 10:52:31;;;;;;;;;;;21.40;27.60;;;;;;5071818;28;20063;-54
2022/03/13 10:55:16;;;;;;;;;;;21.50;27.50;;;;;;5071700;28;19923;-54
2022/03/13 10:57:48;;;;;;;;;;;21.50;27.30;;;;;;5058321;28;19916;-53
2022/03/13 11:00:16;;;;;;;;;;;21.60;27.40;;;;;;5068056;28;19923;-53
2022/03/13 11:02:41;;;;;;;;;;;21.70;27.30;;;;;;5071511;28;19920;-53
2022/03/13 11:05:07;;;;;;;;;;;21.80;27.10;;;;;;5070856;28;19913;-53
2022/03/13 11:07:33;;;;;;;;;;;21.90;26.90;;;;;;5071473;28;19924;-53
2022/03/13 11:09:59;;;;;;;;;;;22.00;26.90;;;;;;5051532;28;19909;-54
2022/03/13 11:12:24;;;;;;;;;;;22.00;27.20;;;;;;5070114;28;20350;-54
2022/03/13 11:14:52;;;;;;;;;;;22.10;26.70;;;;;;5071485;28;19986;-54
2022/03/13 11:17:19;;;;;;;;;;;22.20;26.70;;;;;;5071228;28;20348;-53
2022/03/13 11:19:49;;;;;;;;;;;22.20;26.40;;;;;;5075098;28;19920;-54
2022/03/13 11:22:17;;;;;;;;;;;22.20;26.30;;;;;;5075385;28;19908;-54
2022/03/13 11:24:43;;;;;;;;;;;22.20;26.20;;;;;;5075470;28;19917;-54
2022/03/13 11:27:09;;;;;;;;;;;22.20;26.10;;;;;;5067220;28;19962;-53
2022/03/13 11:29:40;;;;;;;;;;;22.20;26.00;;;;;;5055471;28;19909;-54
2022/03/13 11:32:26;;;;;;;;;;;22.20;26.10;;;;;;5055798;28;20015;-53
2022/03/13 11:35:10;;;;;;;;;;;22.10;26.10;;;;;;5051148;28;20380;-53
2022/03/13 11:37:36;;;;;;;;;;;22.10;26.00;;;;;;5075481;28;20279;-53
2022/03/13 11:40:02;;;;;;;;;;;22.00;25.90;;;;;;5073955;28;19913;-53
2022/03/13 11:42:27;;;;;;;;;;;22.00;25.90;;;;;;5072912;28;19908;-54
2022/03/13 11:44:53;;;;;;;;;;;22.00;25.90;;;;;;5073714;28;19919;-54
2022/03/13 11:47:19;;;;;;;;;;;22.00;25.80;;;;;;5074974;28;20289;-54
2022/03/13 11:49:45;;;;;;;;;;;21.90;25.80;;;;;;5067358;28;19919;-54
2022/03/13 11:52:16;;;;;;;;;;;21.90;25.90;;;;;;5073165;28;19998;-54
2022/03/13 11:54:44;;;;;;;;;;;21.90;26.10;;;;;;5080137;28;20202;-54
2022/03/13 11:57:16;;;;;;;;;;;21.90;26.20;;;;;;5071288;28;20010;-54
2022/03/13 11:59:49;;;;;;;;;;;21.80;26.20;;;;;;5060537;28;20336;-54
2022/03/13 12:02:33;;;;;;;;;;;21.90;26.30;;;;;;5064334;28;19913;-54
2022/03/13 12:05:17;;;;;;;;;;;21.80;26.20;;;;;;5065130;28;19920;-54
2022/03/13 12:07:51;;;;;;;;;;;21.90;26.30;;;;;;5069061;28;20270;-54
2022/03/13 12:10:45;;;;;;;;;;;22.00;26.50;;;;;;5071226;28;20379;-54
2022/03/13 12:13:11;;;;;;;;;;;22.00;26.80;;;;;;5068441;28;20015;-54
2022/03/13 12:15:37;;;;;;;;;;;22.00;26.90;;;;;;5070512;28;20226;-53
2022/03/13 12:18:32;;;;;;;;;;;22.10;26.90;;;;;;5070153;28;20011;-54
2022/03/13 12:21:05;;;;;;;;;;;22.10;26.90;;;;;;5069563;28;19958;-54
2022/03/13 12:23:31;;;;;;;;;;;22.10;27.00;;;;;;5069000;28;19920;-54
2022/03/13 12:26:16;;;;;;;;;;;22.10;27.10;;;;;;5069763;28;19916;-55
2022/03/13 12:28:42;;;;;;;;;;;22.10;27.10;;;;;;5066522;28;20362;-53
2022/03/13 12:31:07;;;;;;;;;;;22.10;27.20;;;;;;5067320;28;19917;-54
2022/03/13 12:33:35;;;;;;;;;;;22.10;27.20;;;;;;5069386;28;19924;-54
2022/03/13 12:36:02;;;;;;;;;;;22.10;27.20;;;;;;5069241;28;20046;-53
2022/03/13 12:38:31;;;;;;;;;;;22.10;27.30;;;;;;5071354;28;20292;-54
2022/03/13 12:40:58;;;;;;;;;;;22.10;27.20;;;;;;5069854;28;20408;-53
2022/03/13 12:43:25;;;;;;;;;;;22.20;27.30;;;;;;5070281;28;19923;-53
2022/03/13 12:45:54;;;;;;;;;;;22.20;27.30;;;;;;5070500;28;19916;-53
2022/03/13 12:48:19;;;;;;;;;;;22.10;27.20;;;;;;5069169;28;19921;-54
2022/03/13 12:50:47;;;;;;;;;;;22.10;27.30;;;;;;5070378;28;19977;-53
2022/03/13 12:53:22;;;;;;;;;;;22.10;27.30;;;;;;5069977;28;20403;-53
2022/03/13 12:55:51;;;;;;;;;;;22.20;27.30;;;;;;5068850;28;19916;-54
2022/03/13 12:58:17;;;;;;;;;;;22.20;27.20;;;;;;5069553;28;19970;-54
2022/03/13 13:00:43;;;;;;;;;;;22.20;27.80;;;;;;5068251;28;19912;-54
2022/03/13 13:03:08;;;;;;;;;;;22.30;27.30;;;;;;5069558;28;19913;-53
2022/03/13 13:05:34;;;;;;;;;;;22.30;27.10;;;;;;5069672;28;19920;-54
2022/03/13 13:07:59;;;;;;;;;;;22.30;27.10;;;;;;5069143;28;20374;-54
2022/03/13 13:10:25;;;;;;;;;;;22.30;27.00;;;;;;5070384;28;19913;-54
2022/03/13 13:12:51;;;;;;;;;;;22.30;26.90;;;;;;5068996;28;19968;-54
2022/03/13 13:15:18;;;;;;;;;;;22.20;26.80;;;;;;5068275;28;19955;-54
2022/03/13 13:17:46;;;;;;;;;;;22.20;26.80;;;;;;5070548;28;20360;-54
2022/03/13 13:20:18;;;;;;;;;;;22.20;26.90;;;;;;5067216;28;19912;-54
2022/03/13 13:22:44;;;;;;;;;;;22.20;26.90;;;;;;5069327;28;19921;-54
2022/03/13 13:25:16;;;;;;;;;;;22.10;26.90;;;;;;5070484;28;19965;-54
2022/03/13 13:27:51;;;;;;;;;;;22.10;26.90;;;;;;5067948;28;19994;-54
2022/03/13 13:30:32;;;;;;;;;;;22.10;26.80;;;;;;5068466;28;19974;-54
2022/03/13 13:33:04;;;;;;;;;;;22.00;26.60;;;;;;5067505;28;19917;-54
2022/03/13 13:35:32;;;;;;;;;;;22.00;26.70;;;;;;5066780;28;19920;-54
2022/03/13 13:37:59;;;;;;;;;;;22.00;26.80;;;;;;5066578;28;19928;-53
2022/03/13 13:40:28;;;;;;;;;;;21.90;26.80;;;;;;5067232;28;19920;-54
2022/03/13 13:42:57;;;;;;;;;;;21.90;26.80;;;;;;5068321;28;19956;-54
2022/03/13 13:45:29;;;;;;;;;;;21.90;26.90;;;;;;5067809;28;19962;-54
2022/03/13 13:47:54;;;;;;;;;;;21.90;26.90;;;;;;5067574;28;20007;-55
2022/03/13 13:50:24;;;;;;;;;;;22.00;26.90;;;;;;5068171;28;19999;-55
2022/03/13 13:52:59;;;;;;;;;;;22.00;26.90;;;;;;5066969;28;19924;-54
2022/03/13 13:55:26;;;;;;;;;;;22.00;26.90;;;;;;5068860;28;19917;-55
2022/03/13 13:58:10;;;;;;;;;;;22.00;26.80;;;;;;5068009;28;19912;-55
2022/03/13 14:00:38;;;;;;;;;;;22.10;26.70;;;;;;5069129;28;19921;-55
2022/03/13 14:03:03;;;;;;;;;;;22.10;26.60;;;;;;5067376;28;23161;-53
2022/03/13 14:05:28;;;;;;;;;;;22.20;26.60;;;;;;5063398;28;19912;-54
2022/03/13 14:07:54;;;;;;;;;;;22.20;26.50;;;;;;5066331;28;19921;-53
2022/03/13 14:10:19;;;;;;;;;;;22.20;26.40;;;;;;5068049;28;19912;-54
2022/03/13 14:12:48;;;;;;;;;;;22.20;26.40;;;;;;5067534;28;19924;-54
2022/03/13 14:15:14;;;;;;;;;;;22.30;26.50;;;;;;5068257;28;20014;-54